createdAt,value
2022-08-09T00:00:23.214Z,11.35
2022-08-09T00:02:51.512Z,12.00
2022-08-09T00:06:18.145Z,10.98
2022-08-09T00:08:11.410Z,11.25
2022-08-09T00:11:58.593Z,12.52
2022-08-09T00:14:28.023Z,11.27
2022-08-09T00:17:05.616Z,11.40
2022-08-09T00:19:32.690Z,11.35
2022-08-09T00:25:51.646Z,11.50
2022-08-09T00:28:19.340Z,11.38
2022-08-09T00:31:57.398Z,11.13
2022-08-09T00:33:56.581Z,12.13
2022-08-09T00:36:27.126Z,11.05
2022-08-09T00:38:56.838Z,11.70
2022-08-09T00:44:10.359Z,10.40
2022-08-09T00:44:49.469Z,10.55
2022-08-09T00:47:16.348Z,12.05
2022-08-09T00:49:54.665Z,10.75
2022-08-09T00:52:30.082Z,11.32
2022-08-09T00:55:01.873Z,11.57
2022-08-09T00:57:34.931Z,12.02
2022-08-09T01:00:21.092Z,11.40
2022-08-09T01:03:16.878Z,12.18
2022-08-09T01:05:55.313Z,12.02
2022-08-09T01:08:49.565Z,11.82
2022-08-09T01:11:42.236Z,11.68
2022-08-09T01:14:41.095Z,11.77
2022-08-09T01:17:19.328Z,11.93
2022-08-09T01:20:02.177Z,13.82
2022-08-09T01:25:55.855Z,12.27
2022-08-09T01:28:26.023Z,12.00
2022-08-09T01:30:55.682Z,12.55
2022-08-09T01:33:28.063Z,12.77
2022-08-09T01:36:08.841Z,13.65
2022-08-09T01:38:38.665Z,13.35
2022-08-09T01:41:09.184Z,12.02
2022-08-09T01:43:50.354Z,13.07
2022-08-09T01:46:28.502Z,12.43
2022-08-09T01:49:09.711Z,11.88
2022-08-09T01:52:15.934Z,11.75
2022-08-09T01:54:50.626Z,12.85
2022-08-09T01:57:20.934Z,12.32
2022-08-09T01:59:52.988Z,12.23
2022-08-09T02:02:31.263Z,12.95
2022-08-09T02:05:05.541Z,12.00
2022-08-09T02:08:39.841Z,13.70
2022-08-09T02:10:37.313Z,12.70
2022-08-09T02:13:07.064Z,11.77
2022-08-09T02:15:49.433Z,11.82
2022-08-09T02:21:17.086Z,11.90
2022-08-09T02:23:54.803Z,12.63
2022-08-09T02:26:27.449Z,12.57
2022-08-09T02:29:00.311Z,12.90
2022-08-09T02:31:37.077Z,12.57
2022-08-09T02:34:13.233Z,12.90
2022-08-09T02:36:54.607Z,11.82
2022-08-09T02:39:34.216Z,11.80
2022-08-09T02:42:10.513Z,11.52
2022-08-09T02:45:17.932Z,12.13
2022-08-09T02:47:58.865Z,12.23
2022-08-09T02:50:37.397Z,12.40
2022-08-09T02:53:26.375Z,12.25
2022-08-09T02:55:59.149Z,13.07
2022-08-09T02:58:35.270Z,13.23
2022-08-09T03:05:24.773Z,12.90
2022-08-09T03:07:55.022Z,12.77
2022-08-09T03:10:25.069Z,13.43
2022-08-09T03:12:53.260Z,14.13
2022-08-09T03:15:22.931Z,15.98
2022-08-09T03:17:54.000Z,12.93
2022-08-09T03:20:29.884Z,13.15
2022-08-09T03:23:13.703Z,14.80
2022-08-09T03:25:58.240Z,13.50
2022-08-09T03:28:30.990Z,13.85
2022-08-09T03:31:21.301Z,13.02
2022-08-09T03:33:54.190Z,13.65
2022-08-09T03:36:27.396Z,14.57
2022-08-09T03:38:56.340Z,15.07
2022-08-09T03:42:06.186Z,13.75
2022-08-09T03:44:34.127Z,14.25
2022-08-09T03:47:01.024Z,14.25
2022-08-09T03:49:32.774Z,15.25
2022-08-09T03:52:42.425Z,14.48
2022-08-09T03:55:14.352Z,12.93
2022-08-09T03:57:44.666Z,13.85
2022-08-09T04:00:34.161Z,15.75
2022-08-09T04:03:01.452Z,15.35
2022-08-09T04:05:28.392Z,15.98
2022-08-09T04:07:59.299Z,14.73
2022-08-09T04:10:28.385Z,14.35
2022-08-09T04:13:03.827Z,14.02
2022-08-09T04:15:52.207Z,15.10
2022-08-09T04:18:21.503Z,13.57
2022-08-09T04:20:51.266Z,13.57
2022-08-09T04:23:23.363Z,13.88
2022-08-09T04:28:34.315Z,14.70
2022-08-09T04:31:08.574Z,14.35
2022-08-09T04:36:24.148Z,15.00
2022-08-09T04:38:51.527Z,13.43
2022-08-09T04:41:23.392Z,13.57
2022-08-09T04:44:06.417Z,14.95
2022-08-09T04:46:57.699Z,15.20
2022-08-09T04:49:40.682Z,14.75
2022-08-09T04:52:11.995Z,13.98
2022-08-09T04:54:48.094Z,15.52
2022-08-09T04:57:15.318Z,15.75
2022-08-09T04:59:48.445Z,14.70
2022-08-09T05:02:17.489Z,15.10
2022-08-09T05:04:45.470Z,13.40
2022-08-09T05:07:19.388Z,14.90
2022-08-09T05:10:27.168Z,14.48
2022-08-09T05:12:54.048Z,14.07
2022-08-09T05:15:24.663Z,14.60
2022-08-09T05:18:38.718Z,14.90
2022-08-09T05:22:00.137Z,13.68
2022-08-09T05:24:27.269Z,14.43
2022-08-09T05:26:54.536Z,14.48
2022-08-09T05:29:24.254Z,15.50
2022-08-09T05:32:54.777Z,14.07
2022-08-09T05:35:22.299Z,14.18
2022-08-09T05:37:50.466Z,16.15
2022-08-09T05:41:24.108Z,15.60
2022-08-09T05:43:51.738Z,17.63
2022-08-09T05:46:18.637Z,19.65
2022-08-09T05:48:45.560Z,18.45
2022-08-09T05:51:42.756Z,19.73
2022-08-09T05:54:13.470Z,18.65
2022-08-09T05:56:55.278Z,17.05
2022-08-09T05:59:23.733Z,17.65
2022-08-09T06:01:53.812Z,18.42
2022-08-09T06:04:26.035Z,17.63
2022-08-09T06:07:02.370Z,17.17
2022-08-09T06:09:54.512Z,18.08
2022-08-09T06:12:16.449Z,18.08
2022-08-09T06:14:44.121Z,17.02
2022-08-09T06:17:12.609Z,21.65
2022-08-09T06:19:40.923Z,22.65
2022-08-09T06:22:15.174Z,26.55
2022-08-09T06:24:42.855Z,26.70
2022-08-09T06:27:09.938Z,24.38
2022-08-09T06:29:48.409Z,27.35
2022-08-09T06:33:00.478Z,25.58
2022-08-09T06:35:57.248Z,29.63
2022-08-09T06:38:50.543Z,30.35
2022-08-09T06:42:08.773Z,28.17
2022-08-09T06:44:26.462Z,28.67
2022-08-09T06:46:59.206Z,28.48
2022-08-09T06:49:44.602Z,31.42
2022-08-09T06:52:17.748Z,26.90
2022-08-09T06:54:45.592Z,28.58
2022-08-09T06:57:13.397Z,29.52
2022-08-09T07:03:51.854Z,35.17
2022-08-09T07:06:46.696Z,39.10
2022-08-09T07:09:55.893Z,36.00
2022-08-09T07:12:17.374Z,36.90
2022-08-09T07:16:34.818Z,37.35
2022-08-09T07:18:02.348Z,38.00
2022-08-09T07:21:01.117Z,36.47
2022-08-09T07:23:29.060Z,36.50
2022-08-09T07:26:04.203Z,38.22
2022-08-09T07:28:37.513Z,35.08
2022-08-09T07:31:48.377Z,35.80
2022-08-09T07:34:30.124Z,31.98
2022-08-09T07:37:03.629Z,32.53
2022-08-09T07:43:29.116Z,30.35
2022-08-09T07:45:56.247Z,26.90
2022-08-09T07:48:30.477Z,27.83
2022-08-09T07:52:05.215Z,28.27
2022-08-09T07:54:27.849Z,26.23
2022-08-09T07:57:33.927Z,24.08
2022-08-09T08:00:11.180Z,23.33
2022-08-09T08:02:50.596Z,22.75
2022-08-09T08:05:19.717Z,21.40
2022-08-09T08:09:02.218Z,20.70
2022-08-09T08:20:33.547Z,19.00
2022-08-09T08:24:11.845Z,18.17
2022-08-09T08:26:55.692Z,13.68
2022-08-09T08:29:27.460Z,13.02
2022-08-09T08:32:03.795Z,13.18
2022-08-09T08:34:34.732Z,13.05
2022-08-09T08:37:04.028Z,11.93
2022-08-09T08:39:39.704Z,12.07
2022-08-09T08:42:10.704Z,11.18
2022-08-09T08:44:37.940Z,11.38
2022-08-09T08:47:12.394Z,10.30
2022-08-09T08:49:48.686Z,10.48
2022-08-09T08:55:18.965Z,9.65
2022-08-09T08:57:56.429Z,9.32
2022-08-09T09:00:30.422Z,9.27
2022-08-09T09:03:08.708Z,9.13
2022-08-09T09:05:58.637Z,8.15
2022-08-09T09:08:32.134Z,7.97
2022-08-09T09:11:44.236Z,8.77
2022-08-09T09:14:21.347Z,9.25
2022-08-09T09:16:51.326Z,9.13
2022-08-09T09:19:37.745Z,10.18
2022-08-09T09:22:11.778Z,9.43
2022-08-09T09:28:04.229Z,8.95
2022-08-09T09:30:38.191Z,9.27
2022-08-09T09:33:17.098Z,8.57
2022-08-09T09:36:02.045Z,8.88
2022-08-09T09:38:46.352Z,8.32
2022-08-09T09:41:52.315Z,9.00
2022-08-09T09:44:35.148Z,9.02
2022-08-09T09:47:16.303Z,9.85
2022-08-09T09:50:14.731Z,10.23
2022-08-09T09:52:56.479Z,9.07
2022-08-09T09:55:32.605Z,10.77
2022-08-09T09:58:15.886Z,10.50
2022-08-09T10:00:58.826Z,10.43
2022-08-09T10:03:57.216Z,9.10
2022-08-09T10:06:25.757Z,9.25
2022-08-09T10:09:11.581Z,8.77
2022-08-09T10:12:36.636Z,8.57
2022-08-09T10:15:17.760Z,9.15
2022-08-09T10:17:56.660Z,9.68
2022-08-09T10:20:32.971Z,9.27
2022-08-09T10:23:23.661Z,8.57
2022-08-09T10:26:06.032Z,9.05
2022-08-09T10:28:37.325Z,9.50
2022-08-09T10:32:27.560Z,8.38
2022-08-09T10:34:10.571Z,8.70
2022-08-09T10:36:43.694Z,8.55
2022-08-09T10:39:16.171Z,8.40
2022-08-09T10:41:47.571Z,8.65
2022-08-09T10:44:21.831Z,7.70
2022-08-09T10:48:16.781Z,8.32
2022-08-09T10:53:21.135Z,8.15
2022-08-09T10:55:57.880Z,8.32
2022-08-09T10:58:34.662Z,8.43
2022-08-09T11:03:07.421Z,7.60
2022-08-09T11:04:19.446Z,7.40
2022-08-09T11:06:59.899Z,7.90
2022-08-09T11:09:47.967Z,6.85
2022-08-09T11:12:29.965Z,7.63
2022-08-09T11:15:01.640Z,7.55
2022-08-09T11:17:32.520Z,7.75
2022-08-09T11:20:22.259Z,7.57
2022-08-09T11:22:55.469Z,6.40
2022-08-09T11:25:45.303Z,6.43
2022-08-09T11:28:38.512Z,6.15
2022-08-09T11:31:49.933Z,7.55
2022-08-09T11:34:35.235Z,7.68
2022-08-09T11:37:07.308Z,6.63
2022-08-09T11:40:08.135Z,8.02
2022-08-09T11:42:47.099Z,7.10
2022-08-09T11:45:37.941Z,7.25
2022-08-09T11:48:24.712Z,6.43
2022-08-09T11:54:00.574Z,6.10
2022-08-09T11:56:41.513Z,6.82
2022-08-09T11:59:30.457Z,6.95
2022-08-09T12:02:16.881Z,7.15
2022-08-09T12:04:45.713Z,6.43
2022-08-09T12:07:14.293Z,5.78
2022-08-09T12:09:50.816Z,6.80
2022-08-09T12:12:20.297Z,7.88
2022-08-09T12:15:08.154Z,7.85
2022-08-09T12:17:44.454Z,6.97
2022-08-09T12:20:32.696Z,7.78
2022-08-09T12:23:02.268Z,7.20
2022-08-09T12:25:37.980Z,7.28
2022-08-09T12:28:59.248Z,5.97
2022-08-09T12:32:01.898Z,7.18
2022-08-09T12:34:42.306Z,5.97
2022-08-09T12:37:24.058Z,6.60
2022-08-09T12:40:08.606Z,6.07
2022-08-09T12:42:36.326Z,6.22
2022-08-09T12:45:07.053Z,6.82
2022-08-09T12:47:53.172Z,7.28
2022-08-09T12:50:23.651Z,7.25
2022-08-09T12:53:09.019Z,5.57
2022-08-09T12:56:14.816Z,6.03
2022-08-09T12:58:28.068Z,7.13
2022-08-09T13:01:32.980Z,6.60
2022-08-09T13:04:05.161Z,6.70
2022-08-09T13:06:40.950Z,6.05
2022-08-09T13:09:13.813Z,6.40
2022-08-09T13:11:47.377Z,5.95
2022-08-09T13:14:40.975Z,6.13
2022-08-09T13:18:03.700Z,6.90
2022-08-09T13:20:15.181Z,6.10
2022-08-09T13:23:01.763Z,5.78
2022-08-09T13:25:52.803Z,5.53
2022-08-09T13:28:34.670Z,5.95
2022-08-09T13:32:14.142Z,6.22
2022-08-09T13:33:57.058Z,6.00
2022-08-09T13:36:40.335Z,8.52
2022-08-09T13:41:50.811Z,5.80
2022-08-09T13:42:05.812Z,5.93
2022-08-09T13:44:43.416Z,5.85
2022-08-09T13:47:26.424Z,5.45
2022-08-09T13:50:12.434Z,5.35
2022-08-09T13:52:40.487Z,5.65
2022-08-09T13:55:13.540Z,5.60
2022-08-09T14:00:53.138Z,5.45
2022-08-09T14:04:01.552Z,6.03
2022-08-09T14:06:19.229Z,5.57
2022-08-09T14:08:46.775Z,5.30
2022-08-09T14:11:16.318Z,10.05
2022-08-09T14:14:22.659Z,5.07
2022-08-09T14:16:31.061Z,5.55
2022-08-09T14:18:58.413Z,6.15
2022-08-09T14:21:29.497Z,5.18
2022-08-09T14:24:05.411Z,4.90
2022-08-09T14:26:37.875Z,4.38
2022-08-09T14:29:07.964Z,5.00
2022-08-09T14:31:54.221Z,5.20
2022-08-09T14:34:30.990Z,5.85
2022-08-09T14:37:00.111Z,4.95
2022-08-09T14:39:46.183Z,6.13
2022-08-09T14:42:28.783Z,4.78
2022-08-09T14:46:39.940Z,5.13
2022-08-09T14:47:57.439Z,4.90
2022-08-09T14:50:28.744Z,4.50
2022-08-09T14:52:56.104Z,6.85
2022-08-09T14:55:23.080Z,5.47
2022-08-09T14:57:50.115Z,4.35
2022-08-09T15:00:18.159Z,4.82
2022-08-09T15:02:47.119Z,4.32
2022-08-09T15:05:16.283Z,4.30
2022-08-09T15:07:45.369Z,4.57
2022-08-09T15:10:14.021Z,4.45
2022-08-09T15:12:44.863Z,4.55
2022-08-09T15:15:13.143Z,4.57
2022-08-09T15:17:42.655Z,3.85
2022-08-09T15:20:15.343Z,4.50
2022-08-09T15:24:02.109Z,4.35
2022-08-09T15:25:54.173Z,4.25
2022-08-09T15:28:27.382Z,4.35
2022-08-09T15:31:09.820Z,4.60
2022-08-09T15:34:27.327Z,5.43
2022-08-09T15:36:29.255Z,4.00
2022-08-09T15:39:00.992Z,5.10
2022-08-09T15:41:31.269Z,4.53
2022-08-09T15:44:02.083Z,4.20
2022-08-09T15:46:33.814Z,4.07
2022-08-09T15:49:22.452Z,5.90
2022-08-09T15:52:04.863Z,5.35
2022-08-09T15:54:44.875Z,4.65
2022-08-09T15:57:18.747Z,5.43
2022-08-09T15:59:51.787Z,6.15
2022-08-09T16:02:19.552Z,6.38
2022-08-09T16:04:54.276Z,6.35
2022-08-09T16:07:21.099Z,6.63
2022-08-09T16:09:51.255Z,8.88
2022-08-09T16:12:30.882Z,9.27
2022-08-09T16:14:58.200Z,7.80
2022-08-09T16:17:28.865Z,6.15
2022-08-09T16:20:14.720Z,8.15
2022-08-09T16:22:48.874Z,7.57
2022-08-09T16:25:16.333Z,5.85
2022-08-09T16:28:03.416Z,7.00
2022-08-09T16:30:34.117Z,5.88
2022-08-09T16:33:10.278Z,5.03
2022-08-09T16:35:56.902Z,7.43
2022-08-09T16:38:25.541Z,4.72
2022-08-09T16:40:53.987Z,4.95
2022-08-09T16:43:22.611Z,4.82
2022-08-09T16:45:53.616Z,4.88
2022-08-09T16:48:50.425Z,4.78
2022-08-09T16:51:13.884Z,4.80
2022-08-09T16:56:34.754Z,4.07
2022-08-09T16:59:10.245Z,4.20
2022-08-09T17:01:39.160Z,4.82
2022-08-09T17:04:10.056Z,4.55
2022-08-09T17:08:41.211Z,4.88
2022-08-09T17:09:46.114Z,5.18
2022-08-09T17:12:14.450Z,5.50
2022-08-09T17:14:46.400Z,5.00
2022-08-09T17:17:26.935Z,5.45
2022-08-09T17:20:29.048Z,5.75
2022-08-09T17:22:51.956Z,5.43
2022-08-09T17:25:20.403Z,5.53
2022-08-09T17:27:54.421Z,4.88
2022-08-09T17:30:47.959Z,6.20
2022-08-09T17:33:22.262Z,5.53
2022-08-09T17:35:50.000Z,6.13
2022-08-09T17:38:34.038Z,6.25
2022-08-09T17:41:44.435Z,7.22
2022-08-09T17:44:38.830Z,6.47
2022-08-09T17:47:04.862Z,6.20
2022-08-09T17:49:33.559Z,7.00
2022-08-09T17:52:02.502Z,7.93
2022-08-09T17:54:30.724Z,6.55
2022-08-09T17:56:59.809Z,7.13
2022-08-09T17:59:38.185Z,7.07
2022-08-09T18:02:12.749Z,6.50
2022-08-09T18:04:47.628Z,7.47
2022-08-09T18:07:23.426Z,8.23
2022-08-09T18:10:05.128Z,6.95
2022-08-09T18:12:40.886Z,7.38
2022-08-09T18:15:19.457Z,8.10
2022-08-09T18:18:03.431Z,7.90
2022-08-09T18:21:01.790Z,7.85
2022-08-09T18:24:11.281Z,8.32
2022-08-09T18:26:06.815Z,7.40
2022-08-09T18:30:35.698Z,7.78
2022-08-09T18:31:25.086Z,11.02
2022-08-09T18:33:59.344Z,19.00
2022-08-09T18:36:32.575Z,20.55
2022-08-09T18:39:03.247Z,18.48
2022-08-09T18:41:35.538Z,17.88
2022-08-09T18:44:04.785Z,19.05
2022-08-09T18:46:47.639Z,16.05
2022-08-09T18:49:19.669Z,14.35
2022-08-09T18:51:54.978Z,19.73
2022-08-09T18:54:29.722Z,11.73
2022-08-09T18:57:05.549Z,11.50
2022-08-09T18:59:37.297Z,11.32
2022-08-09T19:02:11.151Z,11.00
2022-08-09T19:04:41.817Z,11.60
2022-08-09T19:07:16.468Z,11.27
2022-08-09T19:10:14.436Z,11.05
2022-08-09T19:12:32.246Z,9.68
2022-08-09T19:15:04.511Z,9.10
2022-08-09T19:17:56.479Z,9.95
2022-08-09T19:20:44.839Z,8.68
2022-08-09T19:26:06.575Z,9.88
2022-08-09T19:28:38.080Z,8.77
2022-08-09T19:31:07.585Z,8.68
2022-08-09T19:33:36.189Z,9.20
2022-08-09T19:36:03.844Z,8.65
2022-08-09T19:38:36.731Z,9.93
2022-08-09T19:41:08.444Z,10.23
2022-08-09T19:43:57.925Z,8.38
2022-08-09T19:46:35.242Z,9.02
2022-08-09T19:50:07.976Z,9.07
2022-08-09T19:51:57.068Z,8.38
2022-08-09T19:54:25.456Z,9.77
2022-08-09T19:56:53.776Z,9.75
2022-08-09T19:59:59.595Z,9.80
2022-08-09T20:02:17.168Z,9.95
2022-08-09T20:04:55.941Z,9.70
2022-08-09T20:07:26.145Z,8.93
2022-08-09T20:10:17.627Z,8.95
2022-08-09T20:12:46.015Z,9.07
2022-08-09T20:16:37.975Z,10.38
2022-08-09T20:18:00.799Z,9.77
2022-08-09T20:20:28.164Z,9.60
2022-08-09T20:22:56.340Z,9.20
2022-08-09T20:25:24.292Z,9.70
2022-08-09T20:27:52.570Z,9.25
2022-08-09T20:30:57.507Z,10.32
2022-08-09T20:33:25.616Z,9.68
2022-08-09T20:35:53.330Z,10.88
2022-08-09T20:38:33.162Z,9.63
2022-08-09T20:41:11.051Z,10.60
2022-08-09T20:43:39.229Z,9.95
2022-08-09T20:46:33.556Z,11.05
2022-08-09T20:49:01.608Z,11.25
2022-08-09T20:51:29.858Z,12.02
2022-08-09T20:54:08.249Z,10.18
2022-08-09T20:56:41.075Z,10.20
2022-08-09T20:59:08.044Z,10.85
2022-08-09T21:01:51.574Z,11.40
2022-08-09T21:05:53.445Z,11.63
2022-08-09T21:07:11.386Z,11.60
2022-08-09T21:09:45.865Z,11.75
2022-08-09T21:12:23.469Z,12.43
2022-08-09T21:15:01.444Z,11.73
2022-08-09T21:18:11.989Z,11.38
2022-08-09T21:20:22.305Z,10.30
2022-08-09T21:22:54.509Z,12.80
2022-08-09T21:25:44.398Z,10.95
2022-08-09T21:28:34.394Z,11.68
2022-08-09T21:31:17.857Z,11.38
2022-08-09T21:33:52.779Z,11.65
2022-08-09T21:36:27.910Z,11.20
2022-08-09T21:38:57.561Z,10.23
2022-08-09T21:42:40.333Z,11.98
2022-08-09T21:45:17.322Z,13.77
2022-08-09T21:47:45.383Z,11.63
2022-08-09T21:53:06.909Z,11.20
2022-08-09T21:55:47.160Z,12.45
2022-08-09T21:58:15.186Z,9.60
2022-08-09T22:00:42.526Z,12.90
2022-08-09T22:03:19.362Z,12.02
2022-08-09T22:05:52.592Z,11.67
2022-08-09T22:08:24.455Z,11.43
2022-08-09T22:11:49.352Z,12.57
2022-08-09T22:13:43.183Z,12.48
2022-08-09T22:16:11.905Z,11.77
2022-08-09T22:18:53.683Z,11.85
2022-08-09T22:21:27.345Z,11.10
2022-08-09T22:24:17.172Z,11.70
2022-08-09T22:26:51.493Z,11.60
2022-08-09T22:29:19.562Z,13.25
2022-08-09T22:31:56.737Z,11.80
2022-08-09T22:34:26.453Z,11.57
2022-08-09T22:36:57.556Z,12.00
2022-08-09T22:39:55.654Z,11.32
2022-08-09T22:42:21.070Z,11.93
2022-08-09T22:45:00.169Z,12.48
2022-08-09T22:48:13.474Z,12.52
2022-08-09T22:50:31.817Z,10.68
2022-08-09T22:52:59.836Z,11.60
2022-08-09T22:56:05.920Z,12.40
2022-08-09T22:58:30.557Z,12.70
2022-08-09T23:01:27.144Z,10.85
2022-08-09T23:04:05.763Z,11.73
2022-08-09T23:06:52.588Z,11.18
2022-08-09T23:09:19.530Z,10.95
2022-08-09T23:11:46.686Z,11.90
2022-08-09T23:14:17.438Z,11.10
2022-08-09T23:16:44.687Z,12.45
2022-08-09T23:19:11.737Z,12.25
2022-08-09T23:22:16.567Z,10.98
2022-08-09T23:24:43.693Z,13.32
2022-08-09T23:27:16.030Z,12.38
2022-08-09T23:30:09.972Z,12.23
2022-08-09T23:35:04.234Z,14.18
2022-08-09T23:37:31.166Z,13.38
2022-08-09T23:40:00.352Z,13.35
2022-08-09T23:42:28.717Z,13.10
2022-08-09T23:44:55.758Z,14.07
2022-08-09T23:47:22.686Z,12.85
2022-08-09T23:49:49.781Z,13.43
2022-08-09T23:52:16.790Z,13.73
2022-08-09T23:54:45.368Z,13.05
2022-08-09T23:57:12.519Z,14.48
